sensor_id;sensor_type;location;lat;lon;timestamp;pressure;altitude;pressure_sealevel;temperature;humidity
8416;BME280;4245;42.120;24.732;2022-12-20T00:02:22;101597.75;;;1.98;92.29
8416;BME280;4245;42.120;24.732;2022-12-20T00:04:50;101592.47;;;1.95;93.02
8416;BME280;4245;42.120;24.732;2022-12-20T00:07:16;101592.50;;;2.00;91.21
8416;BME280;4245;42.120;24.732;2022-12-20T00:09:43;101591.56;;;1.77;91.53
8416;BME280;4245;42.120;24.732;2022-12-20T00:12:10;101586.31;;;1.70;93.81
8416;BME280;4245;42.120;24.732;2022-12-20T00:14:38;101587.22;;;1.74;96.34
8416;BME280;4245;42.120;24.732;2022-12-20T00:17:05;101586.31;;;1.72;95.28
8416;BME280;4245;42.120;24.732;2022-12-20T00:19:32;101583.72;;;1.77;94.76
8416;BME280;4245;42.120;24.732;2022-12-20T00:21:58;101580.22;;;1.68;93.60
8416;BME280;4245;42.120;24.732;2022-12-20T00:24:25;101584.56;;;1.59;95.49
8416;BME280;4245;42.120;24.732;2022-12-20T00:26:52;101580.19;;;1.58;95.74
8416;BME280;4245;42.120;24.732;2022-12-20T00:29:19;101575.84;;;1.67;94.74
8416;BME280;4245;42.120;24.732;2022-12-20T00:31:47;101579.28;;;1.56;95.50
8416;BME280;4245;42.120;24.732;2022-12-20T00:34:14;101575.78;;;1.49;93.27
8416;BME280;4245;42.120;24.732;2022-12-20T00:36:40;101576.63;;;1.42;94.87
8416;BME280;4245;42.120;24.732;2022-12-20T00:39:08;101580.13;;;1.44;94.34
8416;BME280;4245;42.120;24.732;2022-12-20T00:41:35;101583.59;;;1.42;93.96
8416;BME280;4245;42.120;24.732;2022-12-20T00:44:03;101580.06;;;1.29;94.60
8416;BME280;4245;42.120;24.732;2022-12-20T00:46:30;101580.91;;;1.26;94.99
8416;BME280;4245;42.120;24.732;2022-12-20T00:48:59;101579.19;;;1.28;95.35
8416;BME280;4245;42.120;24.732;2022-12-20T00:51:28;101578.28;;;1.22;95.62
8416;BME280;4245;42.120;24.732;2022-12-20T00:53:56;101569.50;;;1.12;97.55
8416;BME280;4245;42.120;24.732;2022-12-20T00:56:23;101565.16;;;1.13;98.04
8416;BME280;4245;42.120;24.732;2022-12-20T00:58:50;101566.88;;;1.12;99.29
8416;BME280;4245;42.120;24.732;2022-12-20T01:01:20;101563.38;;;1.07;100.00
8416;BME280;4245;42.120;24.732;2022-12-20T01:03:48;101561.66;;;1.06;100.00
8416;BME280;4245;42.120;24.732;2022-12-20T01:06:16;101561.56;;;0.97;100.00
8416;BME280;4245;42.120;24.732;2022-12-20T01:08:44;101549.38;;;1.02;100.00
8416;BME280;4245;42.120;24.732;2022-12-20T01:11:13;101559.88;;;1.07;100.00
8416;BME280;4245;42.120;24.732;2022-12-20T01:13:42;101558.16;;;1.09;100.00
8416;BME280;4245;42.120;24.732;2022-12-20T01:16:12;101557.25;;;1.07;100.00
8416;BME280;4245;42.120;24.732;2022-12-20T01:18:39;101552.03;;;1.04;100.00
8416;BME280;4245;42.120;24.732;2022-12-20T01:21:08;101549.34;;;0.93;100.00
8416;BME280;4245;42.120;24.732;2022-12-20T01:23:37;101546.72;;;0.90;100.00
8416;BME280;4245;42.120;24.732;2022-12-20T01:26:06;101544.09;;;0.87;100.00
8416;BME280;4245;42.120;24.732;2022-12-20T01:28:35;101540.59;;;0.85;100.00
8416;BME280;4245;42.120;24.732;2022-12-20T01:31:05;101534.53;;;0.91;100.00
8416;BME280;4245;42.120;24.732;2022-12-20T01:33:32;101536.19;;;0.76;100.00
8416;BME280;4245;42.120;24.732;2022-12-20T01:36:00;101529.22;;;0.78;100.00
8416;BME280;4245;42.120;24.732;2022-12-20T01:38:27;101516.97;;;0.74;100.00
8416;BME280;4245;42.120;24.732;2022-12-20T01:40:56;101512.63;;;0.78;100.00
8416;BME280;4245;42.120;24.732;2022-12-20T01:43:24;101508.22;;;0.65;100.00
8416;BME280;4245;42.120;24.732;2022-12-20T01:45:51;101509.06;;;0.64;100.00
8416;BME280;4245;42.120;24.732;2022-12-20T01:48:20;101516.94;;;0.68;100.00
8416;BME280;4245;42.120;24.732;2022-12-20T01:50:49;101511.78;;;0.77;100.00
8416;BME280;4245;42.120;24.732;2022-12-20T01:53:17;101507.41;;;0.75;100.00
8416;BME280;4245;42.120;24.732;2022-12-20T01:55:45;101508.28;;;0.72;100.00
8416;BME280;4245;42.120;24.732;2022-12-20T01:58:15;101515.28;;;0.79;100.00
8416;BME280;4245;42.120;24.732;2022-12-20T02:00:43;101498.72;;;0.83;100.00
8416;BME280;4245;42.120;24.732;2022-12-20T02:03:12;101505.56;;;0.63;100.00
8416;BME280;4245;42.120;24.732;2022-12-20T02:05:41;101505.66;;;0.78;100.00
8416;BME280;4245;42.120;24.732;2022-12-20T02:08:09;101498.72;;;0.85;100.00
8416;BME280;4245;42.120;24.732;2022-12-20T02:10:46;101494.41;;;0.93;100.00
8416;BME280;4245;42.120;24.732;2022-12-20T02:13:24;101490.91;;;0.94;100.00
8416;BME280;4245;42.120;24.732;2022-12-20T02:15:56;101500.53;;;0.95;100.00
8416;BME280;4245;42.120;24.732;2022-12-20T02:18:26;101488.25;;;0.82;100.00
8416;BME280;4245;42.120;24.732;2022-12-20T02:21:23;101493.47;;;0.77;100.00
8416;BME280;4245;42.120;24.732;2022-12-20T02:24:31;101489.94;;;0.74;100.00
8416;BME280;4245;42.120;24.732;2022-12-20T02:27:21;101489.97;;;0.80;100.00
8416;BME280;4245;42.120;24.732;2022-12-20T02:30:03;101487.38;;;0.83;100.00
8416;BME280;4245;42.120;24.732;2022-12-20T02:32:33;101490.84;;;0.79;100.00
8416;BME280;4245;42.120;24.732;2022-12-20T02:35:04;101488.19;;;0.73;100.00
8416;BME280;4245;42.120;24.732;2022-12-20T02:37:32;101488.13;;;0.61;100.00
8416;BME280;4245;42.120;24.732;2022-12-20T02:39:59;101486.44;;;0.66;100.00
8416;BME280;4245;42.120;24.732;2022-12-20T02:42:27;101482.97;;;0.70;100.00
8416;BME280;4245;42.120;24.732;2022-12-20T02:44:57;101480.34;;;0.71;100.00
8416;BME280;4245;42.120;24.732;2022-12-20T02:47:47;101489.91;;;0.69;100.00
8416;BME280;4245;42.120;24.732;2022-12-20T02:50:19;101485.59;;;0.71;100.00
8416;BME280;4245;42.120;24.732;2022-12-20T02:52:47;101489.03;;;0.64;100.00
8416;BME280;4245;42.120;24.732;2022-12-20T02:55:15;101489.06;;;0.70;100.00
8416;BME280;4245;42.120;24.732;2022-12-20T02:57:45;101483.78;;;0.61;100.00
8416;BME280;4245;42.120;24.732;2022-12-20T03:00:16;101480.34;;;0.74;100.00
8416;BME280;4245;42.120;24.732;2022-12-20T03:02:46;101476.03;;;0.79;100.00
8416;BME280;4245;42.120;24.732;2022-12-20T03:05:33;101474.19;;;0.63;100.00
8416;BME280;4245;42.120;24.732;2022-12-20T03:08:01;101469.81;;;0.59;100.00
8416;BME280;4245;42.120;24.732;2022-12-20T03:10:28;101469.84;;;0.68;100.00
8416;BME280;4245;42.120;24.732;2022-12-20T03:12:55;101470.78;;;0.82;100.00
8416;BME280;4245;42.120;24.732;2022-12-20T03:15:22;101467.25;;;0.70;100.00
8416;BME280;4245;42.120;24.732;2022-12-20T03:17:50;101470.72;;;0.66;100.00
8416;BME280;4245;42.120;24.732;2022-12-20T03:20:17;101469.88;;;0.70;100.00
8416;BME280;4245;42.120;24.732;2022-12-20T03:22:44;101467.34;;;0.86;100.00
8416;BME280;4245;42.120;24.732;2022-12-20T03:25:11;101464.63;;;0.62;100.00
8416;BME280;4245;42.120;24.732;2022-12-20T03:27:38;101458.47;;;0.53;100.00
8416;BME280;4245;42.120;24.732;2022-12-20T03:30:06;101463.75;;;0.62;100.00
8416;BME280;4245;42.120;24.732;2022-12-20T03:32:33;101468.06;;;0.57;100.00
8416;BME280;4245;42.120;24.732;2022-12-20T03:35:01;101475.81;;;0.41;100.00
8416;BME280;4245;42.120;24.732;2022-12-20T03:37:28;101470.66;;;0.48;100.00
8416;BME280;4245;42.120;24.732;2022-12-20T03:39:54;101472.44;;;0.56;100.00
8416;BME280;4245;42.120;24.732;2022-12-20T03:42:21;101482.03;;;0.60;100.00
8416;BME280;4245;42.120;24.732;2022-12-20T03:44:48;101479.22;;;0.27;100.00
8416;BME280;4245;42.120;24.732;2022-12-20T03:47:15;101473.09;;;0.22;100.00
8416;BME280;4245;42.120;24.732;2022-12-20T03:49:42;101474.91;;;0.33;100.00
8416;BME280;4245;42.120;24.732;2022-12-20T03:52:11;101480.19;;;0.44;100.00
8416;BME280;4245;42.120;24.732;2022-12-20T03:54:38;101472.31;;;0.36;100.00
8416;BME280;4245;42.120;24.732;2022-12-20T03:57:05;101484.50;;;0.33;100.00
8416;BME280;4245;42.120;24.732;2022-12-20T03:59:32;101480.16;;;0.36;100.00
8416;BME280;4245;42.120;24.732;2022-12-20T04:02:00;101483.69;;;0.44;100.00
8416;BME280;4245;42.120;24.732;2022-12-20T04:04:27;101478.31;;;0.25;100.00
8416;BME280;4245;42.120;24.732;2022-12-20T04:06:53;101471.38;;;0.27;100.00
8416;BME280;4245;42.120;24.732;2022-12-20T04:09:21;101469.72;;;0.38;100.00
8416;BME280;4245;42.120;24.732;2022-12-20T04:11:48;101470.63;;;0.43;100.00
8416;BME280;4245;42.120;24.732;2022-12-20T04:14:15;101469.66;;;0.29;100.00
8416;BME280;4245;42.120;24.732;2022-12-20T04:16:42;101479.19;;;0.25;100.00
8416;BME280;4245;42.120;24.732;2022-12-20T04:19:09;101480.03;;;0.18;100.00
8416;BME280;4245;42.120;24.732;2022-12-20T04:21:36;101477.47;;;0.26;100.00
8416;BME280;4245;42.120;24.732;2022-12-20T04:24:04;101480.16;;;0.38;100.00
8416;BME280;4245;42.120;24.732;2022-12-20T04:26:32;101474.84;;;0.26;100.00
8416;BME280;4245;42.120;24.732;2022-12-20T04:28:59;101473.91;;;0.16;100.00
8416;BME280;4245;42.120;24.732;2022-12-20T04:31:26;101476.56;;;0.19;100.00
8416;BME280;4245;42.120;24.732;2022-12-20T04:33:53;101479.03;;;0.01;100.00
8416;BME280;4245;42.120;24.732;2022-12-20T04:36:20;101483.41;;;0.05;100.00
8416;BME280;4245;42.120;24.732;2022-12-20T04:38:47;101482.59;;;0.09;100.00
8416;BME280;4245;42.120;24.732;2022-12-20T04:41:14;101479.94;;;0.08;100.00
8416;BME280;4245;42.120;24.732;2022-12-20T04:43:49;101470.25;;;-0.07;100.00
8416;BME280;4245;42.120;24.732;2022-12-20T04:46:17;101475.47;;;-0.10;100.00
8416;BME280;4245;42.120;24.732;2022-12-20T04:48:44;101472.88;;;-0.04;100.00
8416;BME280;4245;42.120;24.732;2022-12-20T04:51:11;101477.19;;;-0.09;100.00
8416;BME280;4245;42.120;24.732;2022-12-20T04:53:38;101478.13;;;0.00;100.00
8416;BME280;4245;42.120;24.732;2022-12-20T04:56:17;101481.59;;;-0.07;100.00
8416;BME280;4245;42.120;24.732;2022-12-20T04:58:45;101465.97;;;-0.01;100.00
8416;BME280;4245;42.120;24.732;2022-12-20T05:01:14;101470.31;;;0.02;100.00
8416;BME280;4245;42.120;24.732;2022-12-20T05:03:43;101473.72;;;-0.11;100.00
8416;BME280;4245;42.120;24.732;2022-12-20T05:06:10;101468.41;;;-0.19;100.00
8416;BME280;4245;42.120;24.732;2022-12-20T05:08:37;101466.72;;;-0.12;100.00
8416;BME280;4245;42.120;24.732;2022-12-20T05:11:04;101463.97;;;-0.30;100.00
8416;BME280;4245;42.120;24.732;2022-12-20T05:13:32;101468.47;;;-0.13;100.00
8416;BME280;4245;42.120;24.732;2022-12-20T05:15:59;101455.31;;;-0.25;100.00
8416;BME280;4245;42.120;24.732;2022-12-20T05:18:27;101461.41;;;-0.24;100.00
8416;BME280;4245;42.120;24.732;2022-12-20T05:20:55;101455.41;;;-0.16;100.00
8416;BME280;4245;42.120;24.732;2022-12-20T05:23:40;101453.56;;;-0.26;100.00
8416;BME280;4245;42.120;24.732;2022-12-20T05:26:25;101450.84;;;-0.36;100.00
8416;BME280;4245;42.120;24.732;2022-12-20T05:28:53;101454.25;;;-0.47;100.00
8416;BME280;4245;42.120;24.732;2022-12-20T05:31:20;101455.13;;;-0.43;100.00
8416;BME280;4245;42.120;24.732;2022-12-20T05:33:48;101456.88;;;-0.44;100.00
8416;BME280;4245;42.120;24.732;2022-12-20T05:36:15;101448.44;;;-0.15;100.00
8416;BME280;4245;42.120;24.732;2022-12-20T05:38:42;101450.28;;;-0.02;100.00
8416;BME280;4245;42.120;24.732;2022-12-20T05:41:09;101448.69;;;0.21;100.00
8416;BME280;4245;42.120;24.732;2022-12-20T05:43:36;101454.78;;;0.22;100.00
8416;BME280;4245;42.120;24.732;2022-12-20T05:46:02;101454.75;;;0.16;100.00
8416;BME280;4245;42.120;24.732;2022-12-20T05:48:29;101453.94;;;0.23;100.00
8416;BME280;4245;42.120;24.732;2022-12-20T05:50:58;101448.59;;;0.08;100.00
8416;BME280;4245;42.120;24.732;2022-12-20T05:53:24;101452.94;;;0.07;100.00
8416;BME280;4245;42.120;24.732;2022-12-20T05:55:53;101450.44;;;0.22;100.00
8416;BME280;4245;42.120;24.732;2022-12-20T05:58:20;101459.19;;;0.29;100.00
8416;BME280;4245;42.120;24.732;2022-12-20T06:00:47;101453.91;;;0.18;100.00
8416;BME280;4245;42.120;24.732;2022-12-20T06:03:14;101449.59;;;0.23;100.00
8416;BME280;4245;42.120;24.732;2022-12-20T06:05:41;101453.97;;;0.32;100.00
8416;BME280;4245;42.120;24.732;2022-12-20T06:08:10;101459.25;;;0.39;100.00
8416;BME280;4245;42.120;24.732;2022-12-20T06:10:38;101455.81;;;0.50;100.00
8416;BME280;4245;42.120;24.732;2022-12-20T06:13:06;101460.16;;;0.41;100.00
8416;BME280;4245;42.120;24.732;2022-12-20T06:15:32;101453.19;;;0.45;100.00
8416;BME280;4245;42.120;24.732;2022-12-20T06:17:59;101460.22;;;0.52;100.00
8416;BME280;4245;42.120;24.732;2022-12-20T06:20:26;101461.09;;;0.56;100.00
8416;BME280;4245;42.120;24.732;2022-12-20T06:22:53;101462.06;;;0.71;100.00
8416;BME280;4245;42.120;24.732;2022-12-20T06:25:21;101463.84;;;0.84;100.00
8416;BME280;4245;42.120;24.732;2022-12-20T06:27:48;101463.84;;;0.87;100.00
8416;BME280;4245;42.120;24.732;2022-12-20T06:30:15;101466.47;;;0.89;100.00
8416;BME280;4245;42.120;24.732;2022-12-20T06:32:42;101471.81;;;1.18;100.00
8416;BME280;4245;42.120;24.732;2022-12-20T06:35:09;101462.16;;;2.73;100.00
8416;BME280;4245;42.120;24.732;2022-12-20T06:37:36;101462.13;;;2.84;100.00
8416;BME280;4245;42.120;24.732;2022-12-20T06:40:05;101467.41;;;2.73;100.00
8416;BME280;4245;42.120;24.732;2022-12-20T06:42:34;101468.31;;;2.61;100.00
8416;BME280;4245;42.120;24.732;2022-12-20T06:45:00;101467.47;;;2.53;100.00
8416;BME280;4245;42.120;24.732;2022-12-20T06:47:27;101470.09;;;2.58;100.00
8416;BME280;4245;42.120;24.732;2022-12-20T06:49:54;101457.81;;;2.61;100.00
8416;BME280;4245;42.120;24.732;2022-12-20T06:52:21;101465.63;;;2.90;100.00
8416;BME280;4245;42.120;24.732;2022-12-20T06:54:49;101468.16;;;3.09;100.00
8416;BME280;4245;42.120;24.732;2022-12-20T06:57:16;101461.13;;;3.12;100.00
8416;BME280;4245;42.120;24.732;2022-12-20T06:59:44;101461.91;;;3.25;100.00
8416;BME280;4245;42.120;24.732;2022-12-20T07:02:11;101463.59;;;3.39;100.00
8416;BME280;4245;42.120;24.732;2022-12-20T07:04:38;101465.28;;;3.53;100.00
8416;BME280;4245;42.120;24.732;2022-12-20T07:07:05;101461.72;;;3.63;100.00
8416;BME280;4245;42.120;24.732;2022-12-20T07:09:32;101459.78;;;3.84;100.00
8416;BME280;4245;42.120;24.732;2022-12-20T07:11:58;101465.75;;;4.03;100.00
8416;BME280;4245;42.120;24.732;2022-12-20T07:14:25;101462.97;;;4.20;100.00
8416;BME280;4245;42.120;24.732;2022-12-20T07:16:53;101450.56;;;4.35;100.00
8416;BME280;4245;42.120;24.732;2022-12-20T07:19:20;101464.56;;;4.36;100.00
8416;BME280;4245;42.120;24.732;2022-12-20T07:21:47;101467.13;;;4.44;100.00
8416;BME280;4245;42.120;24.732;2022-12-20T07:24:14;101459.47;;;4.19;100.00
8416;BME280;4245;42.120;24.732;2022-12-20T07:26:42;101461.97;;;4.31;100.00
8416;BME280;4245;42.120;24.732;2022-12-20T07:29:09;101468.84;;;4.48;100.00
8416;BME280;4245;42.120;24.732;2022-12-20T07:31:36;101462.50;;;4.65;100.00
8416;BME280;4245;42.120;24.732;2022-12-20T07:34:04;101460.53;;;4.84;100.00
8416;BME280;4245;42.120;24.732;2022-12-20T07:36:31;101453.28;;;5.03;100.00
8416;BME280;4245;42.120;24.732;2022-12-20T07:38:58;101449.59;;;5.14;100.00
8416;BME280;4245;42.120;24.732;2022-12-20T07:41:24;101453.31;;;5.00;100.00
8416;BME280;4245;42.120;24.732;2022-12-20T07:43:51;101444.28;;;4.46;100.00
8416;BME280;4245;42.120;24.732;2022-12-20T07:46:18;101445.41;;;5.00;100.00
8416;BME280;4245;42.120;24.732;2022-12-20T07:48:46;101437.41;;;5.07;100.00
8416;BME280;4245;42.120;24.732;2022-12-20T07:51:16;101439.84;;;5.21;100.00
8416;BME280;4245;42.120;24.732;2022-12-20T07:53:47;101441.63;;;5.19;100.00
8416;BME280;4245;42.120;24.732;2022-12-20T07:56:17;101438.78;;;5.34;100.00
8416;BME280;4245;42.120;24.732;2022-12-20T07:58:47;101429.91;;;5.41;100.00
8416;BME280;4245;42.120;24.732;2022-12-20T08:01:15;101435.34;;;5.29;100.00
8416;BME280;4245;42.120;24.732;2022-12-20T08:03:44;101432.41;;;5.50;100.00
8416;BME280;4245;42.120;24.732;2022-12-20T08:06:14;101430.88;;;5.33;100.00
8416;BME280;4245;42.120;24.732;2022-12-20T08:08:46;101431.88;;;5.82;100.00
8416;BME280;4245;42.120;24.732;2022-12-20T08:11:15;101428.38;;;6.34;100.00
8416;BME280;4245;42.120;24.732;2022-12-20T08:13:43;101423.16;;;6.75;100.00
8416;BME280;4245;42.120;24.732;2022-12-20T08:16:10;101421.22;;;6.83;100.00
8416;BME280;4245;42.120;24.732;2022-12-20T08:18:37;101433.31;;;6.52;100.00
8416;BME280;4245;42.120;24.732;2022-12-20T08:21:04;101420.72;;;6.65;100.00
8416;BME280;4245;42.120;24.732;2022-12-20T08:23:32;101412.63;;;7.52;100.00
8416;BME280;4245;42.120;24.732;2022-12-20T08:25:59;101410.59;;;7.65;91.18
8416;BME280;4245;42.120;24.732;2022-12-20T08:28:26;101416.13;;;7.54;90.92
8416;BME280;4245;42.120;24.732;2022-12-20T08:30:59;101417.63;;;8.00;84.60
8416;BME280;4245;42.120;24.732;2022-12-20T08:33:26;101418.06;;;8.51;70.93
8416;BME280;4245;42.120;24.732;2022-12-20T08:35:56;101417.06;;;8.21;69.39
8416;BME280;4245;42.120;24.732;2022-12-20T08:38:25;101416.34;;;8.81;63.71
8416;BME280;4245;42.120;24.732;2022-12-20T08:40:53;101407.41;;;9.42;59.33
8416;BME280;4245;42.120;24.732;2022-12-20T08:43:20;101398.31;;;9.49;58.16
8416;BME280;4245;42.120;24.732;2022-12-20T08:45:51;101401.38;;;9.37;58.88
8416;BME280;4245;42.120;24.732;2022-12-20T08:48:18;101388.88;;;9.68;56.81
8416;BME280;4245;42.120;24.732;2022-12-20T08:50:45;101389.09;;;9.60;57.00
8416;BME280;4245;42.120;24.732;2022-12-20T08:53:12;101390.19;;;9.81;55.74
8416;BME280;4245;42.120;24.732;2022-12-20T08:55:38;101389.75;;;9.93;56.78
8416;BME280;4245;42.120;24.732;2022-12-20T08:58:07;101380.38;;;10.59;56.30
8416;BME280;4245;42.120;24.732;2022-12-20T09:00:34;101375.38;;;11.20;53.19
8416;BME280;4245;42.120;24.732;2022-12-20T09:03:01;101376.38;;;11.61;50.52
8416;BME280;4245;42.120;24.732;2022-12-20T09:05:28;101372.66;;;12.07;48.11
8416;BME280;4245;42.120;24.732;2022-12-20T09:07:55;101370.41;;;12.38;46.80
8416;BME280;4245;42.120;24.732;2022-12-20T09:10:21;101368.00;;;12.32;45.51
8416;BME280;4245;42.120;24.732;2022-12-20T09:12:48;101359.41;;;12.05;46.33
8416;BME280;4245;42.120;24.732;2022-12-20T09:15:16;101357.31;;;11.50;47.52
8416;BME280;4245;42.120;24.732;2022-12-20T09:17:43;101354.81;;;11.67;47.99
8416;BME280;4245;42.120;24.732;2022-12-20T09:20:11;101348.75;;;12.05;46.16
8416;BME280;4245;42.120;24.732;2022-12-20T09:22:40;101340.09;;;12.20;46.04
8416;BME280;4245;42.120;24.732;2022-12-20T09:25:07;101340.50;;;12.32;45.58
8416;BME280;4245;42.120;24.732;2022-12-20T09:27:34;101345.81;;;12.71;45.91
8416;BME280;4245;42.120;24.732;2022-12-20T09:30:01;101327.09;;;12.72;44.03
8416;BME280;4245;42.120;24.732;2022-12-20T09:32:29;101335.38;;;12.66;44.65
8416;BME280;4245;42.120;24.732;2022-12-20T09:34:56;101321.72;;;13.11;43.35
8416;BME280;4245;42.120;24.732;2022-12-20T09:37:23;101320.09;;;13.26;42.97
8416;BME280;4245;42.120;24.732;2022-12-20T09:39:49;101309.97;;;13.32;42.50
8416;BME280;4245;42.120;24.732;2022-12-20T09:42:17;101309.25;;;13.12;42.52
8416;BME280;4245;42.120;24.732;2022-12-20T09:44:47;101309.69;;;13.56;41.92
8416;BME280;4245;42.120;24.732;2022-12-20T09:47:18;101306.56;;;13.82;41.10
8416;BME280;4245;42.120;24.732;2022-12-20T09:49:50;101298.03;;;12.66;44.09
8416;BME280;4245;42.120;24.732;2022-12-20T09:52:26;101287.31;;;12.86;43.47
8416;BME280;4245;42.120;24.732;2022-12-20T09:55:00;101287.03;;;12.92;43.42
8416;BME280;4245;42.120;24.732;2022-12-20T09:57:42;101282.38;;;13.15;42.37
8416;BME280;4245;42.120;24.732;2022-12-20T10:00:14;101272.91;;;12.53;43.28
8416;BME280;4245;42.120;24.732;2022-12-20T10:02:41;101264.88;;;11.95;42.24
8416;BME280;4245;42.120;24.732;2022-12-20T10:05:12;101273.78;;;11.74;43.27
8416;BME280;4245;42.120;24.732;2022-12-20T10:07:47;101269.16;;;12.18;43.63
8416;BME280;4245;42.120;24.732;2022-12-20T10:10:40;101269.56;;;11.68;44.05
8416;BME280;4245;42.120;24.732;2022-12-20T10:13:24;101266.06;;;12.08;49.37
8416;BME280;4245;42.120;24.732;2022-12-20T10:15:59;101258.75;;;11.73;44.55
8416;BME280;4245;42.120;24.732;2022-12-20T10:18:44;101252.66;;;11.07;46.35
8416;BME280;4245;42.120;24.732;2022-12-20T10:21:19;101251.06;;;11.45;46.74
8416;BME280;4245;42.120;24.732;2022-12-20T10:23:59;101246.31;;;11.72;45.26
8416;BME280;4245;42.120;24.732;2022-12-20T10:26:28;101232.59;;;10.77;47.03
8416;BME280;4245;42.120;24.732;2022-12-20T10:28:55;101230.63;;;10.82;48.45
8416;BME280;4245;42.120;24.732;2022-12-20T10:31:21;101228.66;;;11.71;46.40
8416;BME280;4245;42.120;24.732;2022-12-20T10:33:48;101217.97;;;12.30;45.32
8416;BME280;4245;42.120;24.732;2022-12-20T10:36:25;101219.06;;;13.18;41.86
8416;BME280;4245;42.120;24.732;2022-12-20T10:38:54;101214.88;;;12.58;42.85
8416;BME280;4245;42.120;24.732;2022-12-20T10:41:22;101207.44;;;12.64;43.27
8416;BME280;4245;42.120;24.732;2022-12-20T10:43:53;101199.91;;;12.91;42.56
8416;BME280;4245;42.120;24.732;2022-12-20T10:46:22;101195.00;;;13.01;42.61
8416;BME280;4245;42.120;24.732;2022-12-20T10:49:20;101191.22;;;12.69;41.77
8416;BME280;4245;42.120;24.732;2022-12-20T10:51:52;101185.22;;;12.28;42.51
8416;BME280;4245;42.120;24.732;2022-12-20T10:54:22;101179.25;;;11.64;42.34
8416;BME280;4245;42.120;24.732;2022-12-20T10:56:53;101181.50;;;11.53;44.05
8416;BME280;4245;42.120;24.732;2022-12-20T10:59:27;101178.78;;;12.13;45.99
8416;BME280;4245;42.120;24.732;2022-12-20T11:01:56;101169.22;;;13.19;42.47
8416;BME280;4245;42.120;24.732;2022-12-20T11:04:26;101164.59;;;14.05;40.72
8416;BME280;4245;42.120;24.732;2022-12-20T11:06:55;101165.06;;;14.13;39.39
8416;BME280;4245;42.120;24.732;2022-12-20T11:09:28;101157.91;;;13.48;39.11
8416;BME280;4245;42.120;24.732;2022-12-20T11:12:00;101149.72;;;12.09;41.85
8416;BME280;4245;42.120;24.732;2022-12-20T11:14:29;101142.38;;;12.50;42.42
8416;BME280;4245;42.120;24.732;2022-12-20T11:16:57;101138.66;;;11.79;42.51
8416;BME280;4245;42.120;24.732;2022-12-20T11:22:36;101120.81;;;10.80;44.60
8416;BME280;4245;42.120;24.732;2022-12-20T11:25:19;101127.22;;;10.96;44.15
8416;BME280;4245;42.120;24.732;2022-12-20T11:27:56;101118.69;;;11.69;43.30
8416;BME280;4245;42.120;24.732;2022-12-20T11:30:36;101110.19;;;12.00;42.95
8416;BME280;4245;42.120;24.732;2022-12-20T11:33:30;101105.06;;;12.50;41.84
8416;BME280;4245;42.120;24.732;2022-12-20T11:36:05;101098.56;;;12.91;40.94
8416;BME280;4245;42.120;24.732;2022-12-20T11:38:41;101093.69;;;12.82;40.68
8416;BME280;4245;42.120;24.732;2022-12-20T11:41:17;101093.38;;;13.05;40.52
8416;BME280;4245;42.120;24.732;2022-12-20T11:43:59;101084.06;;;13.14;40.54
8416;BME280;4245;42.120;24.732;2022-12-20T11:46:41;101087.78;;;13.44;39.25
8416;BME280;4245;42.120;24.732;2022-12-20T11:49:28;101083.03;;;12.82;39.83
8416;BME280;4245;42.120;24.732;2022-12-20T11:52:03;101074.22;;;12.63;40.78
8416;BME280;4245;42.120;24.732;2022-12-20T11:54:36;101066.81;;;11.96;41.55
8416;BME280;4245;42.120;24.732;2022-12-20T11:57:13;101062.47;;;11.95;42.25
8416;BME280;4245;42.120;24.732;2022-12-20T11:59:45;101060.72;;;13.00;40.56
8416;BME280;4245;42.120;24.732;2022-12-20T12:02:14;101049.13;;;13.52;39.55
8416;BME280;4245;42.120;24.732;2022-12-20T12:04:50;101048.56;;;13.78;38.37
8416;BME280;4245;42.120;24.732;2022-12-20T12:07:22;101039.44;;;13.82;38.02
8416;BME280;4245;42.120;24.732;2022-12-20T12:09:56;101044.69;;;13.99;37.63
8416;BME280;4245;42.120;24.732;2022-12-20T12:12:28;101045.63;;;14.29;36.80
8416;BME280;4245;42.120;24.732;2022-12-20T12:15:00;101043.41;;;14.22;36.42
8416;BME280;4245;42.120;24.732;2022-12-20T12:17:38;101037.88;;;14.09;36.74
8416;BME280;4245;42.120;24.732;2022-12-20T12:20:21;101033.59;;;14.07;36.31
8416;BME280;4245;42.120;24.732;2022-12-20T12:22:54;101026.97;;;13.34;37.15
8416;BME280;4245;42.120;24.732;2022-12-20T12:25:26;101020.28;;;12.58;43.44
8416;BME280;4245;42.120;24.732;2022-12-20T12:27:53;101023.19;;;13.38;44.66
8416;BME280;4245;42.120;24.732;2022-12-20T12:30:19;101026.69;;;13.87;41.25
8416;BME280;4245;42.120;24.732;2022-12-20T12:32:52;101024.69;;;14.06;39.44
8416;BME280;4245;42.120;24.732;2022-12-20T12:35:36;101027.25;;;14.23;46.87
8416;BME280;4245;42.120;24.732;2022-12-20T12:38:20;101030.38;;;14.31;41.70
8416;BME280;4245;42.120;24.732;2022-12-20T12:41:07;101014.63;;;16.00;55.51
8416;BME280;4245;42.120;24.732;2022-12-20T12:43:49;101016.78;;;17.51;49.50
8416;BME280;4245;42.120;24.732;2022-12-20T12:46:21;101026.81;;;16.59;40.37
8416;BME280;4245;42.120;24.732;2022-12-20T12:48:55;101023.16;;;16.06;39.54
8416;BME280;4245;42.120;24.732;2022-12-20T12:51:26;101023.16;;;16.06;45.48
8416;BME280;4245;42.120;24.732;2022-12-20T12:54:01;101014.50;;;16.94;38.19
8416;BME280;4245;42.120;24.732;2022-12-20T12:56:36;101011.91;;;16.68;44.15
8416;BME280;4245;42.120;24.732;2022-12-20T12:59:18;101013.34;;;17.36;36.92
8416;BME280;4245;42.120;24.732;2022-12-20T13:01:48;101025.28;;;16.01;33.80
8416;BME280;4245;42.120;24.732;2022-12-20T13:04:26;101012.72;;;16.02;44.69
8416;BME280;4245;42.120;24.732;2022-12-20T13:07:02;101018.75;;;16.05;44.02
8416;BME280;4245;42.120;24.732;2022-12-20T13:09:41;101027.59;;;14.78;38.78
8416;BME280;4245;42.120;24.732;2022-12-20T13:15:48;101016.00;;;14.64;44.47
8416;BME280;4245;42.120;24.732;2022-12-20T13:18:27;101019.19;;;15.29;44.64
8416;BME280;4245;42.120;24.732;2022-12-20T13:21:17;101013.91;;;15.41;41.44
8416;BME280;4245;42.120;24.732;2022-12-20T13:23:44;101015.25;;;15.77;42.14